Time;durP1;ratioP1;P1;durP2;ratioP2;P2;SDS_P1;SDS_P2;PMS_P1;PMS_P2;Temp;Humidity;BMP_temperature;BMP_pressure;BME280_temperature;BME280_humidity;BME280_pressure;Samples;Min_cycle;Max_cycle;Signal;HPM_P1;HPM_P2
2023/06/11 00:00:09;;;;;;;10.63;7.32;;;;;;;;;;5079236;28;20266;-82
2023/06/11 00:02:35;;;;;;;9.00;7.47;;;;;;;;;;5079085;28;20217;-82
2023/06/11 00:05:07;;;;;;;10.32;7.55;;;;;;;;;;5079127;28;20178;-82
2023/06/11 00:07:34;;;;;;;9.20;8.40;;;;;;;;;;5079230;28;20251;-83
2023/06/11 00:10:00;;;;;;;11.07;8.05;;;;;;;;;;5078826;28;20167;-83
2023/06/11 00:12:26;;;;;;;9.70;7.57;;;;;;;;;;5079209;28;20181;-83
2023/06/11 00:14:52;;;;;;;8.90;8.07;;;;;;;;;;5078492;28;20186;-83
2023/06/11 00:17:18;;;;;;;10.00;8.05;;;;;;;;;;5079194;28;20179;-83
2023/06/11 00:19:47;;;;;;;8.85;7.93;;;;;;;;;;5078709;28;20181;-82
2023/06/11 00:22:14;;;;;;;9.23;8.32;;;;;;;;;;5095511;28;20241;-81
2023/06/11 00:24:41;;;;;;;9.10;7.78;;;;;;;;;;5096072;28;20163;-81
2023/06/11 00:27:07;;;;;;;9.35;7.90;;;;;;;;;;5096288;28;20177;-83
2023/06/11 00:29:33;;;;;;;8.95;7.97;;;;;;;;;;5078391;28;20182;-84
2023/06/11 00:31:59;;;;;;;8.55;7.70;;;;;;;;;;5078827;28;20224;-84
2023/06/11 00:34:26;;;;;;;10.25;8.18;;;;;;;;;;5078504;28;20246;-84
2023/06/11 00:36:52;;;;;;;9.65;8.60;;;;;;;;;;5078838;28;20183;-83
2023/06/11 00:39:18;;;;;;;10.40;8.40;;;;;;;;;;5078528;28;20261;-82
2023/06/11 00:41:49;;;;;;;9.02;8.10;;;;;;;;;;5096075;28;20254;-83
2023/06/11 00:44:21;;;;;;;9.32;8.30;;;;;;;;;;5077848;28;20166;-82
2023/06/11 00:46:51;;;;;;;9.60;7.95;;;;;;;;;;5077763;28;20205;-82
2023/06/11 00:49:17;;;;;;;9.95;8.27;;;;;;;;;;5095792;28;20176;-82
2023/06/11 00:51:44;;;;;;;11.25;8.20;;;;;;;;;;5078458;28;20210;-82
2023/06/11 00:54:16;;;;;;;11.55;8.52;;;;;;;;;;5078163;28;20171;-82
2023/06/11 00:56:43;;;;;;;9.75;8.25;;;;;;;;;;5079044;28;20178;-84
2023/06/11 00:59:09;;;;;;;11.43;8.38;;;;;;;;;;5095968;28;20249;-84
2023/06/11 01:01:41;;;;;;;9.00;8.00;;;;;;;;;;5077748;28;20173;-82
2023/06/11 01:04:11;;;;;;;9.00;8.10;;;;;;;;;;5077603;28;20171;-82
2023/06/11 01:06:38;;;;;;;10.85;9.32;;;;;;;;;;5077828;28;20174;-82
2023/06/11 01:09:04;;;;;;;9.75;8.75;;;;;;;;;;5077770;28;20197;-82
2023/06/11 01:11:32;;;;;;;8.90;8.02;;;;;;;;;;5096109;28;20173;-82
2023/06/11 01:13:58;;;;;;;9.88;8.88;;;;;;;;;;5078395;28;20179;-82
2023/06/11 01:16:32;;;;;;;10.38;8.55;;;;;;;;;;5077934;28;20273;-82
2023/06/11 01:19:09;;;;;;;10.10;9.07;;;;;;;;;;5095465;28;20224;-82
2023/06/11 01:21:46;;;;;;;9.90;8.90;;;;;;;;;;5077626;28;20185;-82
2023/06/11 01:24:16;;;;;;;10.48;9.00;;;;;;;;;;5095274;28;20266;-82
2023/06/11 01:26:45;;;;;;;11.80;8.85;;;;;;;;;;5078091;28;20216;-82
2023/06/11 01:29:15;;;;;;;11.07;9.30;;;;;;;;;;5077231;28;20228;-82
2023/06/11 01:31:41;;;;;;;10.85;9.18;;;;;;;;;;5077113;28;20166;-81
2023/06/11 01:34:10;;;;;;;10.50;9.20;;;;;;;;;;5077214;28;20171;-82
2023/06/11 01:36:37;;;;;;;12.35;8.77;;;;;;;;;;5077149;28;20183;-82
2023/06/11 01:39:04;;;;;;;11.50;9.43;;;;;;;;;;5076934;28;20211;-82
2023/06/11 01:41:30;;;;;;;9.90;9.00;;;;;;;;;;5077200;28;20182;-82
2023/06/11 01:43:56;;;;;;;12.05;9.10;;;;;;;;;;5094949;28;20244;-82
2023/06/11 01:46:23;;;;;;;10.25;9.25;;;;;;;;;;5076864;28;20175;-82
2023/06/11 01:48:49;;;;;;;10.77;9.60;;;;;;;;;;5094860;28;20171;-82
2023/06/11 01:51:15;;;;;;;9.93;8.77;;;;;;;;;;5076774;28;20182;-82
2023/06/11 01:53:42;;;;;;;10.65;9.48;;;;;;;;;;5076778;28;20224;-82
2023/06/11 01:56:08;;;;;;;13.00;9.45;;;;;;;;;;5093693;28;20174;-82
2023/06/11 01:58:34;;;;;;;10.90;9.15;;;;;;;;;;5094207;28;20229;-82
2023/06/11 02:01:02;;;;;;;10.32;9.32;;;;;;;;;;5076480;28;20183;-81
2023/06/11 02:03:28;;;;;;;9.95;8.98;;;;;;;;;;5076917;28;20214;-82
2023/06/11 02:05:54;;;;;;;11.55;9.43;;;;;;;;;;5076701;28;20178;-82
2023/06/11 02:08:20;;;;;;;16.40;9.15;;;;;;;;;;5076561;28;20178;-82
2023/06/11 02:10:47;;;;;;;11.20;9.35;;;;;;;;;;5076448;28;20171;-82
2023/06/11 02:13:13;;;;;;;9.50;8.60;;;;;;;;;;5077798;28;20206;-82
2023/06/11 02:15:39;;;;;;;9.95;9.05;;;;;;;;;;5103624;28;20173;-83
2023/06/11 02:18:05;;;;;;;10.88;8.95;;;;;;;;;;5086994;28;20315;-82
2023/06/11 02:20:31;;;;;;;10.38;9.25;;;;;;;;;;5086062;28;20179;-83
2023/06/11 02:22:57;;;;;;;10.63;9.52;;;;;;;;;;5086023;28;20206;-82
2023/06/11 02:25:23;;;;;;;10.82;9.73;;;;;;;;;;5070597;28;20281;-82
2023/06/11 02:27:50;;;;;;;11.88;9.27;;;;;;;;;;5085444;28;20167;-82
2023/06/11 02:30:16;;;;;;;10.50;9.38;;;;;;;;;;5077718;28;20185;-82
2023/06/11 02:32:42;;;;;;;11.07;10.07;;;;;;;;;;5076321;28;20269;-82
2023/06/11 02:35:08;;;;;;;9.88;8.88;;;;;;;;;;5079817;28;20174;-83
2023/06/11 02:37:34;;;;;;;9.97;9.07;;;;;;;;;;5077619;28;20276;-83
2023/06/11 02:40:00;;;;;;;11.23;9.48;;;;;;;;;;5069509;28;20226;-83
2023/06/11 02:42:26;;;;;;;9.67;8.77;;;;;;;;;;5083553;28;20258;-83
2023/06/11 02:44:52;;;;;;;9.82;8.80;;;;;;;;;;5086130;28;20175;-83
2023/06/11 02:47:18;;;;;;;10.77;9.68;;;;;;;;;;5089313;28;20180;-83
2023/06/11 02:49:44;;;;;;;10.17;9.27;;;;;;;;;;5101012;28;20182;-83
2023/06/11 02:52:10;;;;;;;9.97;9.03;;;;;;;;;;5080369;28;20179;-82
2023/06/11 02:54:36;;;;;;;9.77;8.87;;;;;;;;;;5063561;28;20186;-82
2023/06/11 02:57:02;;;;;;;10.43;9.53;;;;;;;;;;5063791;28;20320;-83
2023/06/11 02:59:28;;;;;;;10.47;9.33;;;;;;;;;;5063933;28;20186;-84
2023/06/11 03:01:55;;;;;;;9.80;8.80;;;;;;;;;;5080287;28;20179;-84
2023/06/11 03:04:21;;;;;;;10.20;9.20;;;;;;;;;;5091397;28;20185;-84
2023/06/11 03:06:47;;;;;;;10.17;9.27;;;;;;;;;;5079001;28;20182;-84
2023/06/11 03:09:13;;;;;;;9.43;8.63;;;;;;;;;;5092385;28;20189;-82
2023/06/11 03:11:39;;;;;;;9.83;9.00;;;;;;;;;;5080158;28;20178;-82
2023/06/11 03:14:05;;;;;;;11.00;9.90;;;;;;;;;;5078846;28;20198;-82
2023/06/11 03:16:32;;;;;;;10.20;9.20;;;;;;;;;;5107516;28;20261;-82
2023/06/11 03:18:58;;;;;;;13.90;9.30;;;;;;;;;;5065981;28;20240;-82
2023/06/11 03:21:24;;;;;;;10.50;9.40;;;;;;;;;;5079647;28;20183;-83
2023/06/11 03:23:50;;;;;;;10.90;9.10;;;;;;;;;;5080052;28;20207;-83
2023/06/11 03:26:16;;;;;;;10.33;9.13;;;;;;;;;;5070969;28;20273;-85
2023/06/11 03:28:42;;;;;;;9.77;8.70;;;;;;;;;;5106281;28;20245;-85
2023/06/11 03:31:08;;;;;;;10.03;9.13;;;;;;;;;;5081414;28;20246;-84
2023/06/11 03:33:34;;;;;;;10.73;9.67;;;;;;;;;;5105798;28;20182;-84
2023/06/11 03:36:00;;;;;;;11.40;9.73;;;;;;;;;;5063075;28;20187;-84
2023/06/11 03:38:26;;;;;;;9.77;8.97;;;;;;;;;;5075302;28;20205;-84
2023/06/11 03:40:53;;;;;;;10.93;9.80;;;;;;;;;;5099664;28;20296;-85
2023/06/11 03:43:19;;;;;;;9.80;8.90;;;;;;;;;;5099864;28;20284;-83
2023/06/11 03:45:45;;;;;;;10.30;9.40;;;;;;;;;;5099638;28;20174;-83
2023/06/11 03:48:11;;;;;;;10.40;9.53;;;;;;;;;;5082746;28;20171;-83
2023/06/11 03:50:37;;;;;;;10.60;9.70;;;;;;;;;;5082714;28;20238;-83
2023/06/11 03:53:03;;;;;;;9.70;8.80;;;;;;;;;;5079263;28;20289;-83
2023/06/11 03:55:29;;;;;;;10.57;9.03;;;;;;;;;;5079128;28;20228;-83
2023/06/11 03:57:56;;;;;;;10.27;9.33;;;;;;;;;;5061318;28;20184;-83
2023/06/11 04:00:22;;;;;;;10.40;9.43;;;;;;;;;;5079007;28;20186;-84
2023/06/11 04:02:48;;;;;;;10.30;9.30;;;;;;;;;;5078852;28;20263;-85
2023/06/11 04:05:14;;;;;;;9.97;8.90;;;;;;;;;;5079202;28;20179;-85
2023/06/11 04:07:40;;;;;;;10.13;8.87;;;;;;;;;;5062330;28;20182;-85
2023/06/11 04:10:09;;;;;;;11.73;9.57;;;;;;;;;;5062252;28;20190;-85
2023/06/11 04:12:35;;;;;;;9.90;8.90;;;;;;;;;;5062340;28;20186;-84
2023/06/11 04:15:02;;;;;;;9.80;8.90;;;;;;;;;;5078753;28;20189;-82
2023/06/11 04:17:28;;;;;;;10.10;8.40;;;;;;;;;;5062430;28;20179;-82
2023/06/11 04:19:54;;;;;;;9.70;8.80;;;;;;;;;;5078665;28;20175;-82
2023/06/11 04:22:20;;;;;;;9.97;9.13;;;;;;;;;;5062260;28;20210;-82
2023/06/11 04:24:46;;;;;;;12.97;8.90;;;;;;;;;;5061906;28;20178;-82
2023/06/11 04:27:12;;;;;;;10.47;9.00;;;;;;;;;;5078495;28;20183;-83
2023/06/11 04:29:38;;;;;;;10.93;9.23;;;;;;;;;;5078384;28;20175;-82
2023/06/11 04:32:04;;;;;;;10.50;9.50;;;;;;;;;;5096669;28;20181;-82
2023/06/11 04:34:31;;;;;;;10.20;9.30;;;;;;;;;;5062018;28;20186;-82
2023/06/11 04:36:57;;;;;;;9.70;8.80;;;;;;;;;;5063402;28;20190;-82
2023/06/11 04:39:23;;;;;;;10.17;9.07;;;;;;;;;;5082303;28;20234;-82
2023/06/11 04:41:51;;;;;;;10.07;9.07;;;;;;;;;;5096219;28;20171;-82
2023/06/11 04:44:18;;;;;;;10.10;9.10;;;;;;;;;;5078268;28;20196;-82
2023/06/11 04:46:46;;;;;;;10.33;9.30;;;;;;;;;;5061576;28;20186;-82
2023/06/11 04:49:15;;;;;;;9.87;9.07;;;;;;;;;;5078479;28;20178;-83
2023/06/11 04:51:42;;;;;;;10.03;8.97;;;;;;;;;;5078047;28;20175;-83
2023/06/11 04:54:08;;;;;;;9.77;8.97;;;;;;;;;;5081044;28;20175;-83
2023/06/11 04:56:34;;;;;;;9.93;9.00;;;;;;;;;;5097196;28;20185;-84
2023/06/11 04:59:05;;;;;;;9.80;8.90;;;;;;;;;;5087570;28;20180;-84
2023/06/11 05:01:32;;;;;;;10.23;9.23;;;;;;;;;;5086503;28;20266;-84
2023/06/11 05:03:58;;;;;;;11.00;10.00;;;;;;;;;;5088246;28;20240;-84
2023/06/11 05:06:25;;;;;;;9.93;9.03;;;;;;;;;;5077181;28;20175;-82
2023/06/11 05:08:52;;;;;;;10.03;9.10;;;;;;;;;;5101787;22;20256;-74
2023/06/11 05:11:19;;;;;;;10.70;9.60;;;;;;;;;;5094698;28;20173;-74
2023/06/11 05:13:45;;;;;;;10.37;9.40;;;;;;;;;;5093611;28;20201;-74
2023/06/11 05:16:12;;;;;;;10.63;9.43;;;;;;;;;;5076776;28;20179;-74
2023/06/11 05:18:38;;;;;;;11.60;9.40;;;;;;;;;;5076390;28;20175;-74
2023/06/11 05:21:05;;;;;;;11.17;9.47;;;;;;;;;;5076809;28;20185;-74
2023/06/11 05:23:31;;;;;;;10.57;9.57;;;;;;;;;;5093535;28;20248;-78
2023/06/11 05:26:08;;;;;;;10.77;9.80;;;;;;;;;;5093860;28;20174;-79
2023/06/11 05:28:34;;;;;;;11.13;10.03;;;;;;;;;;5090691;28;20240;-79
2023/06/11 05:31:02;;;;;;;11.20;10.17;;;;;;;;;;5093792;28;20179;-79
2023/06/11 05:33:30;;;;;;;10.60;9.60;;;;;;;;;;5077131;28;20185;-79
2023/06/11 05:35:56;;;;;;;10.70;9.43;;;;;;;;;;5077206;28;20179;-79
2023/06/11 05:38:23;;;;;;;10.50;9.60;;;;;;;;;;5094028;28;20202;-75
2023/06/11 05:40:50;;;;;;;11.33;10.10;;;;;;;;;;5093275;28;20240;-75
2023/06/11 05:43:16;;;;;;;11.20;10.10;;;;;;;;;;5076874;28;20209;-74
2023/06/11 05:45:48;;;;;;;10.57;9.43;;;;;;;;;;5077049;28;20242;-74
2023/06/11 05:48:14;;;;;;;11.23;10.20;;;;;;;;;;5076754;28;20236;-74
2023/06/11 05:50:40;;;;;;;10.23;9.33;;;;;;;;;;5076678;28;20170;-75
2023/06/11 05:53:08;;;;;;;11.33;10.27;;;;;;;;;;5076255;28;20285;-74
2023/06/11 05:55:34;;;;;;;11.33;10.23;;;;;;;;;;5059647;28;20217;-78
2023/06/11 05:58:00;;;;;;;10.43;9.33;;;;;;;;;;5056764;28;20240;-78
2023/06/11 06:00:26;;;;;;;11.53;9.90;;;;;;;;;;5073474;28;20176;-79
2023/06/11 06:02:52;;;;;;;10.63;9.60;;;;;;;;;;5090376;28;20214;-79
2023/06/11 06:05:19;;;;;;;11.47;10.33;;;;;;;;;;5073201;28;20198;-78
2023/06/11 06:07:45;;;;;;;11.37;10.20;;;;;;;;;;5056514;28;20187;-78
2023/06/11 06:10:11;;;;;;;11.00;9.83;;;;;;;;;;5073235;28;20674;-78
2023/06/11 06:12:37;;;;;;;11.33;10.33;;;;;;;;;;5073537;28;20198;-86
2023/06/11 06:15:03;;;;;;;11.10;10.00;;;;;;;;;;5073760;28;20186;-87
2023/06/11 06:17:29;;;;;;;10.70;9.70;;;;;;;;;;5076841;28;20228;-86
2023/06/11 06:19:55;;;;;;;11.27;9.98;;;;;;;;;;5076800;28;20232;-86
2023/06/11 06:22:21;;;;;;;10.47;9.57;;;;;;;;;;5077344;28;20209;-86
2023/06/11 06:24:47;;;;;;;10.93;9.93;;;;;;;;;;5091062;28;20236;-87
2023/06/11 06:27:13;;;;;;;11.77;10.67;;;;;;;;;;5091051;28;20197;-87
2023/06/11 06:29:39;;;;;;;13.37;10.20;;;;;;;;;;5076716;28;20178;-87
2023/06/11 06:32:06;;;;;;;11.77;10.68;;;;;;;;;;5076036;28;20224;-87
2023/06/11 06:34:32;;;;;;;11.47;10.27;;;;;;;;;;5093120;28;20182;-86
2023/06/11 06:36:58;;;;;;;12.88;10.02;;;;;;;;;;5076444;28;20179;-86
2023/06/11 06:39:24;;;;;;;10.80;9.90;;;;;;;;;;5093646;28;20174;-87
2023/06/11 06:41:50;;;;;;;10.83;9.93;;;;;;;;;;5093356;28;20170;-87
2023/06/11 06:44:16;;;;;;;10.80;9.75;;;;;;;;;;5077156;28;20194;-87
2023/06/11 06:46:42;;;;;;;10.83;9.73;;;;;;;;;;5076823;28;20185;-87
2023/06/11 06:49:08;;;;;;;10.65;9.70;;;;;;;;;;5093470;28;20175;-87
2023/06/11 06:51:36;;;;;;;11.98;9.63;;;;;;;;;;5076614;28;20182;-86
2023/06/11 06:54:02;;;;;;;10.48;9.57;;;;;;;;;;5075953;28;20261;-87
2023/06/11 06:56:28;;;;;;;10.73;9.65;;;;;;;;;;5093980;28;20198;-87
2023/06/11 06:58:54;;;;;;;10.77;9.77;;;;;;;;;;5093084;28;20210;-87
2023/06/11 07:01:20;;;;;;;10.45;9.52;;;;;;;;;;5093121;28;20281;-87
2023/06/11 07:03:46;;;;;;;11.15;9.85;;;;;;;;;;5076920;28;20206;-87
2023/06/11 07:06:12;;;;;;;11.40;8.75;;;;;;;;;;5076450;28;20228;-88
2023/06/11 07:08:39;;;;;;;11.10;10.20;;;;;;;;;;5076135;28;20258;-87
2023/06/11 07:11:05;;;;;;;10.40;9.45;;;;;;;;;;5095482;28;20182;-87
2023/06/11 07:13:31;;;;;;;10.60;9.52;;;;;;;;;;5095864;28;20181;-87
2023/06/11 07:15:57;;;;;;;10.85;9.85;;;;;;;;;;5079542;28;20178;-87
2023/06/11 07:18:25;;;;;;;10.60;8.85;;;;;;;;;;5095510;28;20189;-79
2023/06/11 07:20:51;;;;;;;10.85;9.60;;;;;;;;;;5096018;28;20177;-79
2023/06/11 07:23:17;;;;;;;9.60;8.70;;;;;;;;;;5078685;28;20208;-78
2023/06/11 07:25:43;;;;;;;10.63;9.63;;;;;;;;;;5079096;28;20171;-79
2023/06/11 07:28:10;;;;;;;9.35;8.45;;;;;;;;;;5114499;28;20184;-79
2023/06/11 07:30:36;;;;;;;8.55;7.70;;;;;;;;;;5079534;28;20331;-79
2023/06/11 07:33:02;;;;;;;8.45;7.63;;;;;;;;;;5099568;28;20170;-79
2023/06/11 07:35:28;;;;;;;8.52;7.78;;;;;;;;;;5082704;28;20264;-79
2023/06/11 07:37:55;;;;;;;11.07;8.10;;;;;;;;;;5099793;28;20200;-79
2023/06/11 07:40:21;;;;;;;8.40;7.68;;;;;;;;;;5099597;28;20174;-79
2023/06/11 07:42:48;;;;;;;8.35;7.10;;;;;;;;;;5082355;28;20198;-79
2023/06/11 07:45:15;;;;;;;12.07;7.50;;;;;;;;;;5100048;28;20208;-80
2023/06/11 07:47:46;;;;;;;8.65;7.78;;;;;;;;;;5099040;28;20177;-79
2023/06/11 07:50:12;;;;;;;9.32;7.30;;;;;;;;;;5090535;28;20183;-80
2023/06/11 07:52:39;;;;;;;11.20;7.97;;;;;;;;;;5114674;27;20246;-76
2023/06/11 07:55:05;;;;;;;8.07;7.28;;;;;;;;;;5099610;28;20265;-76
2023/06/11 07:57:31;;;;;;;8.32;7.53;;;;;;;;;;5082444;28;20174;-76
2023/06/11 07:59:57;;;;;;;7.93;7.20;;;;;;;;;;5082314;28;20187;-76
2023/06/11 08:02:23;;;;;;;8.10;6.88;;;;;;;;;;5082436;28;20224;-76
2023/06/11 08:04:50;;;;;;;8.60;7.72;;;;;;;;;;5099609;28;20181;-76
2023/06/11 08:07:16;;;;;;;9.23;7.22;;;;;;;;;;5082304;28;20177;-79
2023/06/11 08:09:42;;;;;;;8.32;7.40;;;;;;;;;;5098949;28;20229;-87
2023/06/11 08:12:08;;;;;;;10.77;7.30;;;;;;;;;;5098963;28;20170;-87
2023/06/11 08:14:35;;;;;;;19.35;7.50;;;;;;;;;;5099452;28;20265;-87
2023/06/11 08:17:01;;;;;;;7.85;7.13;;;;;;;;;;5099108;28;20231;-87
2023/06/11 08:19:27;;;;;;;8.20;7.47;;;;;;;;;;5099410;28;20170;-88
2023/06/11 08:21:57;;;;;;;8.48;7.40;;;;;;;;;;5098793;28;20178;-88
2023/06/11 08:24:23;;;;;;;8.48;7.60;;;;;;;;;;5099281;28;20201;-87
2023/06/11 08:26:49;;;;;;;9.07;7.60;;;;;;;;;;5079239;28;20182;-87
2023/06/11 08:29:16;;;;;;;7.78;6.95;;;;;;;;;;5086433;28;20235;-88
2023/06/11 08:31:42;;;;;;;8.07;7.28;;;;;;;;;;5112459;28;20249;-87
2023/06/11 08:34:08;;;;;;;8.48;7.43;;;;;;;;;;5101934;28;20197;-87
2023/06/11 08:36:34;;;;;;;8.35;7.53;;;;;;;;;;5081700;28;20186;-88
2023/06/11 08:39:01;;;;;;;8.35;7.57;;;;;;;;;;5069049;28;20182;-88
2023/06/11 08:41:29;;;;;;;9.20;7.40;;;;;;;;;;5079134;28;20228;-88
2023/06/11 08:43:55;;;;;;;7.53;6.80;;;;;;;;;;5077285;28;20285;-80
2023/06/11 08:46:22;;;;;;;8.40;7.43;;;;;;;;;;5092385;28;20192;-80
2023/06/11 08:48:54;;;;;;;8.27;7.47;;;;;;;;;;5098388;28;20253;-80
2023/06/11 08:51:20;;;;;;;8.73;7.18;;;;;;;;;;5080943;28;20206;-80
2023/06/11 08:53:46;;;;;;;7.65;6.80;;;;;;;;;;5111921;28;20205;-80
2023/06/11 08:56:13;;;;;;;12.02;7.60;;;;;;;;;;5112046;28;20251;-80
2023/06/11 08:58:40;;;;;;;8.38;7.15;;;;;;;;;;5096182;28;20182;-80
2023/06/11 09:01:12;;;;;;;8.15;7.07;;;;;;;;;;5077912;28;20201;-80
2023/06/11 09:03:38;;;;;;;7.95;7.20;;;;;;;;;;5094723;28;20217;-80
2023/06/11 09:06:05;;;;;;;7.60;6.90;;;;;;;;;;5095832;28;20224;-80
2023/06/11 09:08:31;;;;;;;7.90;7.15;;;;;;;;;;5094192;28;20183;-80
2023/06/11 09:10:57;;;;;;;7.72;7.03;;;;;;;;;;5111015;28;20223;-80
2023/06/11 09:13:27;;;;;;;8.30;7.45;;;;;;;;;;5115036;27;20231;-80
2023/06/11 09:15:57;;;;;;;7.75;7.03;;;;;;;;;;5119222;27;20208;-80
2023/06/11 09:18:24;;;;;;;9.80;7.10;;;;;;;;;;5098027;28;20181;-80
2023/06/11 09:20:59;;;;;;;8.90;7.32;;;;;;;;;;5097855;28;20170;-80
2023/06/11 09:23:26;;;;;;;7.93;7.13;;;;;;;;;;5097897;28;20201;-80
2023/06/11 09:25:53;;;;;;;7.70;7.00;;;;;;;;;;5095400;28;20174;-80
2023/06/11 09:28:19;;;;;;;7.93;6.97;;;;;;;;;;5078546;28;20234;-80
2023/06/11 09:30:55;;;;;;;7.97;6.90;;;;;;;;;;5115269;28;20254;-79
2023/06/11 09:33:22;;;;;;;7.57;6.88;;;;;;;;;;5124883;27;20181;-87
2023/06/11 09:35:48;;;;;;;7.53;6.82;;;;;;;;;;5097182;28;20182;-86
2023/06/11 09:38:15;;;;;;;7.25;6.50;;;;;;;;;;5081085;28;20178;-87
2023/06/11 09:40:45;;;;;;;7.13;6.50;;;;;;;;;;5097607;28;20199;-87
2023/06/11 09:43:11;;;;;;;6.97;6.28;;;;;;;;;;5097613;28;20301;-87
2023/06/11 09:45:37;;;;;;;8.82;6.22;;;;;;;;;;5080946;28;20169;-87
2023/06/11 09:48:04;;;;;;;9.52;6.70;;;;;;;;;;5097639;28;20174;-87
2023/06/11 09:50:31;;;;;;;7.10;6.43;;;;;;;;;;5080884;28;20174;-86
2023/06/11 09:52:59;;;;;;;7.43;6.72;;;;;;;;;;5097277;28;20234;-87
2023/06/11 09:55:26;;;;;;;7.65;6.95;;;;;;;;;;5097172;28;20174;-87
2023/06/11 09:57:54;;;;;;;8.00;6.50;;;;;;;;;;5080759;28;20182;-86
2023/06/11 10:00:20;;;;;;;7.47;6.78;;;;;;;;;;5097297;28;20230;-86
2023/06/11 10:02:46;;;;;;;7.63;6.78;;;;;;;;;;5097020;28;20296;-85
2023/06/11 10:05:12;;;;;;;6.72;5.72;;;;;;;;;;5097105;28;20183;-76
2023/06/11 10:07:49;;;;;;;8.07;5.78;;;;;;;;;;5097252;28;20174;-76
2023/06/11 10:10:18;;;;;;;7.22;5.68;;;;;;;;;;5096679;28;20225;-76
2023/06/11 10:12:51;;;;;;;7.13;5.40;;;;;;;;;;5096796;28;20205;-76
2023/06/11 10:15:17;;;;;;;6.50;5.50;;;;;;;;;;5097016;28;20178;-76
2023/06/11 10:17:48;;;;;;;6.43;5.65;;;;;;;;;;5096642;28;20185;-75
2023/06/11 10:20:41;;;;;;;6.32;4.90;;;;;;;;;;5096950;28;20178;-76
2023/06/11 10:23:11;;;;;;;8.23;5.40;;;;;;;;;;5066579;28;20300;-76
2023/06/11 10:25:38;;;;;;;5.47;4.95;;;;;;;;;;5079904;28;20185;-76
2023/06/11 10:28:04;;;;;;;6.55;5.25;;;;;;;;;;5096311;28;20180;-76
2023/06/11 10:30:30;;;;;;;5.68;5.03;;;;;;;;;;5097144;28;20174;-76
2023/06/11 10:32:58;;;;;;;6.28;5.10;;;;;;;;;;5096633;28;20234;-77
2023/06/11 10:35:28;;;;;;;5.13;4.70;;;;;;;;;;5114834;28;20178;-76
2023/06/11 10:38:02;;;;;;;7.13;5.25;;;;;;;;;;5096557;28;20177;-76
2023/06/11 10:40:32;;;;;;;5.93;5.43;;;;;;;;;;5096391;28;20174;-76
2023/06/11 10:42:58;;;;;;;6.68;6.03;;;;;;;;;;5095985;28;20233;-76
2023/06/11 10:45:32;;;;;;;6.70;6.10;;;;;;;;;;5114186;28;20169;-77
2023/06/11 10:48:00;;;;;;;6.75;5.43;;;;;;;;;;5096111;28;20185;-76
2023/06/11 10:50:30;;;;;;;6.60;5.90;;;;;;;;;;5113948;28;20170;-76
2023/06/11 10:53:01;;;;;;;5.68;5.10;;;;;;;;;;5095829;28;20254;-76
2023/06/11 10:55:29;;;;;;;6.25;5.18;;;;;;;;;;5096139;28;20199;-79
2023/06/11 10:57:55;;;;;;;5.60;5.10;;;;;;;;;;5079692;28;20170;-79
2023/06/11 11:00:22;;;;;;;5.45;4.95;;;;;;;;;;5114116;28;20177;-79
2023/06/11 11:02:48;;;;;;;5.43;4.90;;;;;;;;;;5080107;28;20210;-79
2023/06/11 11:05:14;;;;;;;6.13;5.53;;;;;;;;;;5114378;28;20174;-79
2023/06/11 11:07:44;;;;;;;5.45;4.95;;;;;;;;;;5125222;27;20185;-79
2023/06/11 11:10:15;;;;;;;5.97;5.20;;;;;;;;;;5106542;22;20256;-80
2023/06/11 11:12:42;;;;;;;6.10;5.50;;;;;;;;;;5116356;28;20182;-80
2023/06/11 11:15:10;;;;;;;5.95;5.30;;;;;;;;;;5115782;28;20182;-79
2023/06/11 11:17:36;;;;;;;6.47;5.88;;;;;;;;;;5116526;28;20251;-80
2023/06/11 11:20:07;;;;;;;9.15;5.80;;;;;;;;;;5115700;28;20185;-79
2023/06/11 11:22:35;;;;;;;7.07;5.50;;;;;;;;;;5096235;28;20270;-80
2023/06/11 11:25:03;;;;;;;7.07;5.18;;;;;;;;;;5096418;28;20171;-79
2023/06/11 11:27:29;;;;;;;9.27;5.05;;;;;;;;;;5096410;28;20270;-80
2023/06/11 11:29:57;;;;;;;6.00;5.40;;;;;;;;;;5102582;28;20182;-80
2023/06/11 11:32:27;;;;;;;6.95;4.93;;;;;;;;;;5100581;28;20209;-80
2023/06/11 11:34:54;;;;;;;7.22;4.63;;;;;;;;;;5115545;28;20212;-80
2023/06/11 11:37:21;;;;;;;5.35;4.85;;;;;;;;;;5114650;28;20378;-79
2023/06/11 11:39:48;;;;;;;7.60;4.78;;;;;;;;;;5116033;28;20193;-79
2023/06/11 11:42:14;;;;;;;16.38;4.82;;;;;;;;;;5116407;28;20181;-79
2023/06/11 11:44:41;;;;;;;7.10;5.20;;;;;;;;;;5116813;28;20252;-79
2023/06/11 11:47:18;;;;;;;6.65;5.97;;;;;;;;;;5116616;28;20174;-79
2023/06/11 11:49:51;;;;;;;5.90;4.70;;;;;;;;;;5114492;28;20174;-80
2023/06/11 11:52:17;;;;;;;5.95;4.75;;;;;;;;;;5116717;28;20170;-79
2023/06/11 11:54:44;;;;;;;5.93;4.90;;;;;;;;;;5095590;28;20179;-79
2023/06/11 11:57:11;;;;;;;6.05;4.80;;;;;;;;;;5096156;28;20166;-79
2023/06/11 11:59:38;;;;;;;6.38;4.93;;;;;;;;;;5082165;28;20189;-80
2023/06/11 12:02:04;;;;;;;5.63;5.13;;;;;;;;;;5099396;28;20170;-79
2023/06/11 12:04:37;;;;;;;5.32;4.82;;;;;;;;;;5115946;28;20172;-80
2023/06/11 12:07:06;;;;;;;5.63;5.00;;;;;;;;;;5079046;28;20179;-80
2023/06/11 12:09:32;;;;;;;5.20;4.70;;;;;;;;;;5094252;28;20300;-79
2023/06/11 12:11:58;;;;;;;5.53;4.60;;;;;;;;;;5074823;28;20188;-79
2023/06/11 12:14:24;;;;;;;5.57;4.85;;;;;;;;;;5069597;28;20243;-80
2023/06/11 12:16:50;;;;;;;6.53;4.68;;;;;;;;;;5077713;28;20183;-79
2023/06/11 12:19:18;;;;;;;5.10;4.30;;;;;;;;;;5093949;28;20182;-79
2023/06/11 12:21:44;;;;;;;5.38;4.88;;;;;;;;;;5091611;28;20175;-80
2023/06/11 12:24:15;;;;;;;6.55;5.20;;;;;;;;;;5064446;28;20293;-80
2023/06/11 12:26:41;;;;;;;5.10;4.70;;;;;;;;;;5075948;28;20168;-80
2023/06/11 12:29:07;;;;;;;5.82;4.75;;;;;;;;;;5077550;28;20186;-79
2023/06/11 12:31:33;;;;;;;5.13;4.63;;;;;;;;;;5067086;28;20234;-79
2023/06/11 12:33:59;;;;;;;5.95;5.25;;;;;;;;;;5078379;28;20183;-80
2023/06/11 12:36:25;;;;;;;5.53;4.88;;;;;;;;;;5077997;28;20201;-80
2023/06/11 12:38:51;;;;;;;5.13;4.60;;;;;;;;;;5093115;28;20186;-79
2023/06/11 12:41:17;;;;;;;5.32;4.82;;;;;;;;;;5094643;28;20228;-80
2023/06/11 12:43:43;;;;;;;5.50;5.00;;;;;;;;;;5094048;28;20433;-79
2023/06/11 12:46:10;;;;;;;5.88;5.28;;;;;;;;;;5094665;28;20229;-79
2023/06/11 12:48:36;;;;;;;4.97;4.57;;;;;;;;;;5094416;28;20257;-79
2023/06/11 12:51:02;;;;;;;5.35;4.90;;;;;;;;;;5078309;28;20236;-79
2023/06/11 12:53:29;;;;;;;6.13;4.82;;;;;;;;;;5095314;28;20171;-79
2023/06/11 12:55:56;;;;;;;7.10;5.30;;;;;;;;;;5076658;28;20421;-78
2023/06/11 12:58:22;;;;;;;5.47;4.97;;;;;;;;;;5094798;28;20201;-79
2023/06/11 13:00:48;;;;;;;5.28;4.70;;;;;;;;;;5093294;28;20183;-79
2023/06/11 13:03:14;;;;;;;5.60;5.10;;;;;;;;;;5073055;28;20222;-79
2023/06/11 13:05:40;;;;;;;5.20;4.80;;;;;;;;;;5090901;28;20199;-79
2023/06/11 13:08:06;;;;;;;7.45;5.40;;;;;;;;;;5089457;28;20182;-79
2023/06/11 13:10:32;;;;;;;5.55;4.55;;;;;;;;;;5073555;28;20228;-79
2023/06/11 13:12:58;;;;;;;5.07;4.68;;;;;;;;;;5092031;28;20210;-80
2023/06/11 13:15:24;;;;;;;6.05;5.05;;;;;;;;;;5094152;28;20178;-79
2023/06/11 13:17:50;;;;;;;5.47;4.97;;;;;;;;;;5076336;28;20262;-79
2023/06/11 13:20:18;;;;;;;7.03;5.32;;;;;;;;;;5077061;28;20179;-79
2023/06/11 13:22:44;;;;;;;5.90;5.30;;;;;;;;;;5075836;28;20213;-79
2023/06/11 13:25:10;;;;;;;5.75;5.25;;;;;;;;;;5076279;28;20178;-79
2023/06/11 13:27:36;;;;;;;6.35;5.00;;;;;;;;;;5092390;28;20175;-79
2023/06/11 13:30:03;;;;;;;5.18;4.78;;;;;;;;;;5094636;28;20171;-79
2023/06/11 13:32:29;;;;;;;5.20;4.70;;;;;;;;;;5093449;28;20183;-79
2023/06/11 13:34:55;;;;;;;7.28;4.88;;;;;;;;;;5093936;28;20186;-79
2023/06/11 13:37:21;;;;;;;5.82;5.28;;;;;;;;;;5094180;28;20177;-79
2023/06/11 13:39:47;;;;;;;8.77;4.80;;;;;;;;;;5077172;28;20182;-79
2023/06/11 13:42:13;;;;;;;7.45;5.38;;;;;;;;;;5076869;28;20185;-80
2023/06/11 13:44:39;;;;;;;5.53;5.10;;;;;;;;;;5077207;28;20178;-79
2023/06/11 13:47:06;;;;;;;5.93;5.43;;;;;;;;;;5071024;28;20179;-80
2023/06/11 13:49:32;;;;;;;6.05;5.15;;;;;;;;;;5076379;28;20183;-79
2023/06/11 13:51:58;;;;;;;6.10;4.82;;;;;;;;;;5072605;28;20241;-79
2023/06/11 13:54:27;;;;;;;5.43;5.03;;;;;;;;;;5093480;28;20182;-79
2023/06/11 13:56:54;;;;;;;8.10;5.50;;;;;;;;;;5085031;28;20190;-80
2023/06/11 13:59:21;;;;;;;6.50;5.10;;;;;;;;;;5076748;28;20233;-81
2023/06/11 14:01:47;;;;;;;6.78;5.28;;;;;;;;;;5092932;28;20174;-81
2023/06/11 14:04:13;;;;;;;6.03;5.40;;;;;;;;;;5065661;28;20211;-81
2023/06/11 14:06:39;;;;;;;5.68;5.18;;;;;;;;;;5072661;28;20298;-81
2023/06/11 14:09:06;;;;;;;7.72;5.30;;;;;;;;;;5066622;28;20223;-80
2023/06/11 14:11:32;;;;;;;6.20;5.40;;;;;;;;;;5037218;28;20183;-80
2023/06/11 14:13:58;;;;;;;5.57;5.07;;;;;;;;;;5059279;28;20187;-80
2023/06/11 14:16:25;;;;;;;8.07;5.30;;;;;;;;;;5059395;28;20267;-82
2023/06/11 14:18:51;;;;;;;5.90;5.30;;;;;;;;;;5059796;28;20205;-80
2023/06/11 14:21:17;;;;;;;5.78;5.28;;;;;;;;;;5060274;28;20178;-80
2023/06/11 14:23:43;;;;;;;7.50;5.75;;;;;;;;;;5043307;28;20217;-80
2023/06/11 14:26:09;;;;;;;6.68;5.75;;;;;;;;;;5074193;28;20167;-80
2023/06/11 14:28:35;;;;;;;5.85;5.25;;;;;;;;;;5040083;28;20202;-80
2023/06/11 14:31:04;;;;;;;6.18;5.45;;;;;;;;;;5071354;28;20179;-80
2023/06/11 14:33:30;;;;;;;6.28;5.43;;;;;;;;;;5054518;28;20239;-80
2023/06/11 14:35:56;;;;;;;6.13;5.53;;;;;;;;;;5059356;28;20186;-80